createdAt,value
2019-05-30T00:00:37.051Z,64.08
2019-05-30T00:05:42.213Z,64.70
2019-05-30T00:10:47.213Z,64.67
2019-05-30T00:15:52.227Z,65.48
2019-05-30T00:20:57.284Z,65.80
2019-05-30T00:26:07.593Z,66.36
2019-05-30T00:31:12.901Z,66.91
2019-05-30T00:36:17.981Z,67.60
2019-05-30T00:41:23.071Z,68.22
2019-05-30T00:46:28.269Z,68.96
2019-05-30T00:51:33.351Z,69.78
2019-05-30T00:56:38.354Z,70.11
2019-05-30T01:01:43.638Z,70.45
2019-05-30T01:06:48.672Z,70.90
2019-05-30T01:11:54.081Z,71.20
2019-05-30T01:17:03.164Z,71.37
2019-05-30T01:22:08.184Z,71.65
2019-05-30T01:27:13.211Z,71.32
2019-05-30T01:32:30.833Z,72.06
2019-05-30T01:37:35.867Z,72.17
2019-05-30T01:42:41.132Z,72.15
2019-05-30T01:47:46.340Z,72.14
2019-05-30T01:52:51.448Z,72.47
2019-05-30T01:57:56.520Z,72.52
2019-05-30T02:03:02.832Z,72.53
2019-05-30T02:08:09.886Z,72.75
2019-05-30T02:13:14.857Z,73.12
2019-05-30T02:18:19.998Z,73.87
2019-05-30T02:23:25.215Z,73.87
2019-05-30T02:28:30.297Z,74.80
2019-05-30T02:33:35.335Z,74.88
2019-05-30T02:38:40.604Z,75.54
2019-05-30T02:43:45.730Z,75.66
2019-05-30T02:48:58.617Z,75.79
2019-05-30T02:53:57.765Z,76.21
2019-05-30T02:59:03.878Z,76.56
2019-05-30T03:04:10.957Z,77.30
2019-05-30T03:09:16.879Z,78.22
2019-05-30T03:14:22.246Z,78.78
2019-05-30T03:19:27.380Z,79.89
2019-05-30T03:24:32.458Z,80.68
2019-05-30T03:29:37.540Z,81.53
2019-05-30T03:34:42.665Z,81.93
2019-05-30T03:39:48.193Z,81.92
2019-05-30T03:44:53.428Z,81.78
2019-05-30T03:50:01.947Z,81.08
2019-05-30T03:55:09.222Z,80.75
2019-05-30T04:00:32.556Z,80.11
2019-05-30T04:05:43.545Z,79.72
2019-05-30T04:10:50.672Z,79.46
2019-05-30T04:15:55.850Z,78.87
2019-05-30T04:21:01.064Z,78.20
2019-05-30T04:26:07.442Z,77.19
2019-05-30T04:31:14.061Z,76.80
2019-05-30T04:36:19.651Z,76.26
2019-05-30T04:41:24.753Z,75.97
2019-05-30T04:46:29.912Z,75.91
2019-05-30T04:51:35.238Z,75.81
2019-05-30T04:56:40.295Z,75.37
2019-05-30T05:01:45.595Z,75.09
2019-05-30T05:06:50.943Z,74.59
2019-05-30T05:11:56.021Z,74.84
2019-05-30T05:17:01.350Z,74.73
2019-05-30T05:22:06.784Z,75.19
2019-05-30T05:27:11.927Z,74.75
2019-05-30T05:32:18.156Z,74.02
2019-05-30T05:37:23.631Z,73.27
2019-05-30T05:42:30.221Z,72.19
2019-05-30T05:47:35.676Z,72.04
2019-05-30T05:52:40.840Z,71.69
2019-05-30T05:57:46.119Z,71.38
2019-05-30T06:02:51.247Z,71.26
2019-05-30T06:07:56.423Z,70.69
2019-05-30T06:13:01.644Z,70.37
2019-05-30T06:18:06.777Z,70.22
2019-05-30T06:23:12.083Z,69.33
2019-05-30T06:28:18.009Z,68.73
2019-05-30T06:33:24.774Z,68.29
2019-05-30T06:38:30.099Z,67.29
2019-05-30T06:43:35.266Z,65.17
2019-05-30T06:48:40.466Z,65.01
2019-05-30T06:53:45.626Z,63.89
2019-05-30T06:58:50.900Z,60.98
2019-05-30T07:03:56.415Z,60.18
2019-05-30T07:09:10.357Z,59.58
2019-05-30T07:14:15.693Z,59.02
2019-05-30T07:19:20.874Z,57.51
2019-05-30T07:24:27.647Z,58.14
2019-05-30T07:29:34.138Z,57.06
2019-05-30T07:34:39.296Z,57.24
2019-05-30T07:39:44.394Z,57.00
2019-05-30T07:44:49.680Z,55.35
2019-05-30T07:49:54.857Z,55.35
2019-05-30T07:55:00.024Z,55.15
2019-05-30T08:00:09.379Z,54.88
2019-05-30T08:05:24.289Z,55.21
2019-05-30T08:10:24.404Z,54.63
2019-05-30T08:15:29.776Z,53.89
2019-05-30T08:20:35.936Z,53.75
2019-05-30T08:25:42.444Z,52.89
2019-05-30T08:30:47.896Z,53.19
2019-05-30T08:35:53.750Z,52.19
2019-05-30T08:40:59.491Z,49.59
2019-05-30T08:46:05.462Z,48.65
2019-05-30T08:51:10.864Z,49.43
2019-05-30T08:56:16.371Z,47.39
2019-05-30T09:01:21.703Z,48.52
2019-05-30T09:06:29.538Z,46.94
2019-05-30T09:11:35.867Z,46.03
2019-05-30T09:16:41.907Z,45.86
2019-05-30T09:21:47.481Z,45.60
2019-05-30T09:26:53.054Z,44.79
2019-05-30T09:31:58.371Z,44.23
2019-05-30T09:37:04.470Z,43.77
2019-05-30T09:42:09.663Z,43.37
2019-05-30T09:47:14.978Z,42.48
2019-05-30T09:52:21.027Z,41.92
2019-05-30T09:57:26.375Z,43.04
2019-05-30T10:02:32.010Z,41.62
2019-05-30T10:07:37.132Z,41.30
2019-05-30T10:12:42.593Z,40.80
2019-05-30T10:17:52.190Z,39.28
2019-05-30T10:22:57.253Z,39.88
2019-05-30T10:28:02.950Z,39.45
2019-05-30T10:33:08.043Z,38.78
2019-05-30T10:38:13.201Z,37.97
2019-05-30T10:43:18.231Z,36.31
2019-05-30T10:48:23.389Z,35.81
2019-05-30T10:53:28.777Z,35.61
2019-05-30T10:58:35.344Z,34.80
2019-05-30T11:03:40.547Z,33.98
2019-05-30T11:08:49.044Z,33.78
2019-05-30T11:13:55.385Z,33.66
2019-05-30T11:19:06.853Z,32.49
2019-05-30T11:24:08.514Z,31.90
2019-05-30T11:29:13.733Z,31.62
2019-05-30T11:34:18.985Z,30.63
2019-05-30T11:39:24.120Z,30.19
2019-05-30T11:44:29.280Z,30.19
2019-05-30T11:49:37.445Z,29.42
2019-05-30T11:54:42.480Z,29.92
2019-05-30T11:59:50.089Z,29.15
2019-05-30T12:04:56.514Z,28.50
2019-05-30T12:10:02.094Z,29.03
2019-05-30T12:15:09.373Z,28.64
2019-05-30T12:20:15.438Z,28.10
2019-05-30T12:25:20.988Z,28.50
2019-05-30T12:30:26.890Z,28.22
2019-05-30T12:35:34.274Z,28.38
2019-05-30T12:40:39.843Z,29.29
2019-05-30T12:45:47.014Z,28.25
2019-05-30T12:50:53.135Z,28.74
2019-05-30T12:56:00.579Z,28.83
2019-05-30T13:01:07.995Z,28.63
2019-05-30T13:06:13.192Z,29.14
2019-05-30T13:11:18.928Z,30.49
2019-05-30T13:16:24.214Z,30.29
2019-05-30T13:21:29.295Z,29.99
2019-05-30T13:26:34.430Z,29.88
2019-05-30T13:31:39.561Z,29.34
2019-05-30T13:36:44.738Z,29.48
2019-05-30T13:41:50.400Z,29.94
2019-05-30T13:46:55.659Z,30.36
2019-05-30T13:52:01.000Z,30.66
2019-05-30T13:57:07.835Z,31.60
2019-05-30T14:02:13.496Z,30.01
2019-05-30T14:07:18.682Z,30.21
2019-05-30T14:12:24.912Z,30.52
2019-05-30T14:17:30.095Z,30.20
2019-05-30T14:22:35.298Z,30.67
2019-05-30T14:27:40.527Z,31.00
2019-05-30T14:32:45.793Z,29.88
2019-05-30T14:37:51.087Z,29.59
2019-05-30T14:42:56.120Z,30.16
2019-05-30T14:48:01.216Z,30.88
2019-05-30T14:53:06.836Z,30.89
2019-05-30T14:58:13.198Z,30.51
2019-05-30T15:03:18.566Z,30.10
2019-05-30T15:08:23.781Z,30.54
2019-05-30T15:13:29.261Z,31.16
2019-05-30T15:18:34.496Z,31.54
2019-05-30T15:23:39.665Z,31.68
2019-05-30T15:28:51.188Z,32.08
2019-05-30T15:33:56.489Z,32.85
2019-05-30T15:39:01.649Z,33.63
2019-05-30T15:44:07.873Z,33.99
2019-05-30T15:49:14.280Z,33.96
2019-05-30T15:54:19.464Z,35.03
2019-05-30T15:59:24.716Z,35.69
2019-05-30T16:04:29.842Z,36.26
2019-05-30T16:09:46.672Z,37.54
2019-05-30T16:14:42.948Z,37.66
2019-05-30T16:19:48.242Z,38.64
2019-05-30T16:24:53.308Z,38.18
2019-05-30T16:29:58.458Z,38.38
2019-05-30T16:35:03.641Z,39.33
2019-05-30T16:40:09.144Z,39.32
2019-05-30T16:45:20.345Z,40.15
2019-05-30T16:50:24.276Z,40.80
2019-05-30T16:55:29.389Z,41.09
2019-05-30T17:00:34.565Z,41.57
2019-05-30T17:05:39.713Z,42.03
2019-05-30T17:10:44.855Z,41.62
2019-05-30T17:15:50.131Z,41.83
2019-05-30T17:20:55.345Z,41.65
2019-05-30T17:26:01.020Z,42.00
2019-05-30T17:31:06.346Z,42.74
2019-05-30T17:36:11.563Z,43.21
2019-05-30T17:41:18.653Z,44.35
2019-05-30T17:46:25.637Z,44.90
2019-05-30T17:51:30.893Z,45.24
2019-05-30T17:56:36.498Z,45.94
2019-05-30T18:01:43.946Z,46.66
2019-05-30T18:06:49.098Z,47.34
2019-05-30T18:11:54.348Z,48.54
2019-05-30T18:16:59.874Z,48.87
2019-05-30T18:22:05.191Z,49.26
2019-05-30T18:27:10.383Z,50.05
2019-05-30T18:32:15.923Z,51.66
2019-05-30T18:37:22.256Z,52.62
2019-05-30T18:42:29.046Z,52.84
2019-05-30T18:47:44.472Z,52.60
2019-05-30T18:52:50.654Z,52.22
2019-05-30T18:57:55.836Z,51.97
2019-05-30T19:03:01.371Z,53.39
2019-05-30T19:08:07.444Z,54.53
2019-05-30T19:13:12.593Z,55.36
2019-05-30T19:18:18.207Z,55.91
2019-05-30T19:23:23.322Z,57.85
2019-05-30T19:28:30.484Z,58.50
2019-05-30T19:33:37.135Z,59.89
2019-05-30T19:38:42.499Z,59.93
2019-05-30T19:43:47.822Z,59.20
2019-05-30T19:48:52.991Z,59.25
2019-05-30T19:53:58.145Z,59.60
2019-05-30T19:59:03.546Z,59.86
2019-05-30T20:04:08.724Z,60.12
2019-05-30T20:09:13.837Z,60.29
2019-05-30T20:14:19.174Z,61.06
2019-05-30T20:19:24.451Z,60.94
2019-05-30T20:24:29.574Z,61.55
2019-05-30T20:29:35.029Z,61.11
2019-05-30T20:34:40.937Z,61.30
2019-05-30T20:39:47.139Z,61.38
2019-05-30T20:44:52.499Z,61.46
2019-05-30T20:49:58.098Z,61.80
2019-05-30T20:55:03.468Z,61.65
2019-05-30T21:00:15.815Z,61.64
2019-05-30T21:05:20.966Z,61.18
2019-05-30T21:10:27.223Z,61.06
2019-05-30T21:15:33.135Z,61.03
2019-05-30T21:20:38.455Z,60.83
2019-05-30T21:25:43.527Z,60.85
2019-05-30T21:30:48.642Z,61.11
2019-05-30T21:35:53.705Z,61.00
2019-05-30T21:40:58.786Z,61.19
2019-05-30T21:46:13.698Z,61.26
2019-05-30T21:51:19.256Z,61.42
2019-05-30T21:56:24.590Z,61.39
2019-05-30T22:01:35.570Z,61.60
2019-05-30T22:06:40.929Z,61.67
2019-05-30T22:11:45.927Z,62.09
2019-05-30T22:16:52.193Z,62.62
2019-05-30T22:21:58.442Z,62.89
2019-05-30T22:27:03.525Z,62.92
2019-05-30T22:32:08.786Z,62.86
2019-05-30T22:37:15.044Z,62.49
2019-05-30T22:42:20.566Z,63.01
2019-05-30T22:47:25.625Z,63.43
2019-05-30T22:52:30.794Z,63.66
2019-05-30T22:57:35.828Z,63.99
2019-05-30T23:02:41.075Z,63.87
2019-05-30T23:07:47.256Z,63.87
2019-05-30T23:12:53.963Z,63.67
2019-05-30T23:17:59.220Z,63.72
2019-05-30T23:23:04.388Z,63.82
2019-05-30T23:28:09.552Z,63.62
2019-05-30T23:33:14.730Z,63.83
2019-05-30T23:38:19.809Z,63.78
2019-05-30T23:43:25.047Z,64.06
2019-05-30T23:48:30.125Z,64.00
2019-05-30T23:53:36.258Z,64.32
2019-05-30T23:58:41.370Z,64.50
